Date,TemperatureHighF,TemperatureAvgF,TemperatureLowF,DewpointHighF,DewpointAvgF,DewpointLowF,HumidityHigh,HumidityAvg,HumidityLow,PressureMaxIn,PressureMinIn,WindSpeedMaxMPH,WindSpeedAvgMPH,GustSpeedMaxMPH,PrecipitationSumIn
2014-1-1,56,50,46,-100,-100,-202,0,0,100,30.39,30.16,7,2,0,0.00
2014-1-2,60,54,51,-100,-100,-202,0,0,100,30.16,29.69,14,2,0,0.00
2014-1-3,51,38,33,19,2,-202,48,33,1,30.45,29.80,14,6,0,0.00
2014-1-4,50,42,33,16,-50,-100,47,17,2,30.45,30.19,13,5,0,0.00
2014-1-5,67,55,46,-100,-100,-202,0,0,100,30.20,29.90,10,2,0,0.00
2014-1-6,62,50,30,23,-45,-202,48,18,3,30.29,29.81,18,6,0,0.00
2014-1-7,33,27,20,15,10,6,58,50,36,30.58,30.29,11,3,0,0.00
2014-1-8,45,36,27,24,4,-100,57,40,2,30.62,30.50,15,4,0,0.02
2014-1-9,58,48,39,0,-90,-202,13,1,4,30.51,30.39,12,5,0,0.00
2014-1-10,68,62,54,-100,-100,-202,0,0,100,30.37,30.10,13,5,0,0.00
2014-1-11,64,61,58,-100,-100,-202,0,0,100,30.10,29.77,11,4,0,0.00
2014-1-12,64,56,48,39,-66,-202,40,7,7,30.24,29.83,11,2,0,0.00
2014-1-13,63,53,46,22,-72,-202,23,4,1,30.24,29.97,6,1,0,0.00
2014-1-14,64,58,51,-100,-100,-202,0,0,100,30.03,29.84,9,2,0,0.00
2014-1-15,64,53,45,21,-87,-202,20,1,1,30.04,29.90,8,1,0,0.00
2014-1-16,52,46,40,26,4,-202,45,26,1,30.13,29.94,9,2,0,0.00
2014-1-17,58,50,39,27,-28,-100,41,21,5,30.14,29.94,17,3,0,0.00
2014-1-18,53,44,38,26,22,-3,51,43,10,30.18,29.97,13,3,0,0.00
2014-1-19,60,49,42,29,-6,-100,47,27,2,30.12,30.00,12,3,0,0.00
2014-1-20,64,51,42,40,-29,-100,45,15,10,30.06,29.94,7,2,0,0.00
2014-1-21,60,52,45,29,-66,-202,48,11,2,29.94,29.59,19,4,0,0.00
2014-1-22,45,40,34,26,18,1,53,41,24,30.18,29.84,12,2,0,0.00
2014-1-23,44,39,33,24,18,13,53,44,33,30.39,30.17,7,2,0,0.00
2014-1-24,40,32,27,20,12,3,60,44,28,30.61,30.38,17,4,0,0.00
2014-1-25,54,43,27,30,-8,-100,59,28,2,30.36,29.84,13,4,0,0.00
2014-1-26,57,48,40,33,-41,-202,41,14,1,30.07,29.98,8,2,0,0.00
2014-1-27,62,54,46,-1,-97,-202,8,0,1,30.02,29.89,10,2,0,0.00
2014-1-28,56,40,32,15,-72,-202,38,7,10,30.22,29.99,14,5,0,0.00
2014-1-29,33,30,28,-100,-100,-202,0,0,100,30.39,30.11,0,0,0,0.00
2014-1-30,32,30,29,-4,-87,-202,22,2,3,30.38,30.22,9,4,0,0.00
2014-1-31,55,42,32,-100,-100,-202,0,0,100,30.29,30.19,7,2,0,0.03
2014-2-1,56,50,46,-100,-100,-202,0,0,100,30.21,30.11,9,2,0,0.01
2014-2-2,65,54,49,-100,-100,-202,0,0,100,30.21,30.09,4,0,0,0.03
2014-2-3,63,59,54,-100,-100,-202,0,0,100,30.14,30.02,8,2,0,0.01
2014-2-4,58,51,49,-100,-100,-202,0,0,100,30.28,30.09,15,6,0,0.01
2014-2-5,64,57,50,12,-85,-202,18,1,4,30.09,29.89,8,2,0,0.01
2014-2-6,54,47,42,11,-72,-100,18,3,3,30.18,30.07,12,5,0,0.02
2014-8-31,82,81,80,77,77,77,89,87,85,30.13,30.12,0,0,0,0.00
2014-9-1,90,84,77,80,78,76,96,82,67,30.14,30.07,0,0,0,0.00
2014-9-2,90,84,79,80,77,74,96,80,60,30.11,30.00,0,0,0,0.00
2014-9-3,88,82,75,78,76,74,97,83,68,30.12,30.02,0,0,0,0.07
2014-9-4,88,83,78,78,76,74,88,77,66,30.17,30.10,0,0,0,0.00
2014-9-5,87,81,78,78,75,74,91,82,68,30.18,30.07,0,0,0,0.14
2014-9-6,86,80,75,78,75,72,97,85,73,30.08,29.96,0,0,0,0.54
2014-9-7,87,80,75,78,75,73,97,87,72,30.02,29.94,0,0,0,0.67
2014-9-8,82,76,74,77,73,73,97,91,78,30.07,29.99,0,0,0,0.17
2014-9-9,83,76,72,75,72,71,97,89,71,30.12,30.04,0,0,0,0.00
2014-9-10,84,78,72,76,73,70,96,85,73,30.12,30.04,0,0,0,0.00
2014-9-11,89,82,76,78,76,73,96,82,67,30.08,29.99,0,0,0,0.00
2014-9-12,88,82,78,79,76,73,95,82,64,30.07,29.98,0,0,0,0.13
2014-9-13,88,83,77,79,77,75,96,82,72,30.12,30.02,0,0,0,0.00
2014-9-14,84,78,73,77,74,71,96,88,78,30.20,30.08,0,0,0,0.03
2014-9-15,85,76,71,78,73,70,97,91,75,30.20,30.11,0,0,0,0.26
2014-9-16,84,76,73,78,74,72,98,94,79,30.12,29.94,0,0,0,0.28
2014-9-17,84,76,70,76,72,69,98,86,65,29.96,29.87,0,0,0,0.01
2014-9-18,85,77,71,75,71,69,96,83,68,30.00,29.89,0,0,0,0.00
2014-9-19,82,76,70,74,70,67,95,84,72,30.11,29.98,0,0,0,0.06
2014-9-20,76,39,69,72,37,68,97,49,83,30.10,29.92,0,0,0,0.25
2014-9-21,-200,0,200,-100,0,200,0,0,100,29.99,29.88,0,0,0,0.00
2014-9-22,-200,0,200,-100,0,200,0,0,100,30.12,29.95,0,0,0,0.00
2014-9-23,-200,0,200,-100,0,200,0,0,100,30.18,30.05,0,0,0,0.00
2014-9-24,-200,0,200,-100,0,200,0,0,100,30.19,30.12,0,0,0,0.00
2014-9-25,-200,0,200,-100,0,200,0,0,100,30.18,30.09,0,0,0,0.00
2014-9-26,-200,0,200,-100,0,200,0,0,100,30.13,30.07,0,0,0,0.00
2014-9-27,-200,0,200,-100,0,200,0,0,100,30.12,30.07,0,0,0,0.00
2014-9-28,-200,0,200,-100,0,200,0,0,100,30.11,30.02,0,0,0,0.00
2014-9-29,-200,0,200,-100,0,200,0,0,100,30.04,29.92,0,0,0,0.00
2014-9-30,-200,0,200,-100,0,200,0,0,100,29.92,29.85,0,0,0,0.00
2014-10-1,-200,0,200,-100,0,200,0,0,100,30.05,29.90,0,0,0,0.00
2014-10-2,-200,0,200,-100,0,200,0,0,100,30.14,30.04,0,0,0,0.00
2014-10-3,-200,0,200,-100,0,200,0,0,100,30.08,29.87,0,0,0,0.00
2014-10-4,-200,0,200,-100,0,200,0,0,100,29.94,29.76,0,0,0,0.00
2014-10-5,-200,0,200,-100,0,200,0,0,100,30.08,29.93,0,0,0,0.00
2014-10-6,-200,0,200,-100,0,200,0,0,100,30.17,30.07,0,0,0,0.00
2014-10-7,-200,0,200,-100,0,200,0,0,100,30.17,30.07,0,0,0,0.00
2014-10-8,-200,0,200,-100,0,200,0,0,100,30.14,30.03,0,0,0,0.00
2014-10-9,-200,0,200,-100,0,200,0,0,100,30.16,30.06,0,0,0,0.00
2014-10-10,-200,0,200,-100,0,200,0,0,100,30.14,30.06,0,0,0,0.00
2014-10-11,-200,0,200,-100,0,200,0,0,100,30.09,29.99,0,0,0,0.00
2014-10-12,-200,0,200,-100,0,200,0,0,100,30.17,30.02,0,0,0,0.00
2014-10-13,-200,0,200,-100,0,200,0,0,100,30.20,30.10,0,0,0,0.00
2014-10-14,-200,0,200,-100,0,200,0,0,100,30.10,29.94,0,0,0,0.00
2014-10-15,-200,0,200,-100,0,200,0,0,100,29.94,29.86,0,0,0,0.00
2014-10-16,-200,0,200,-100,0,200,0,0,100,29.93,29.83,0,0,0,0.00
2014-10-17,-200,0,200,-100,0,200,0,0,100,30.00,29.89,0,0,0,0.00
2014-10-18,-200,0,200,-100,0,200,0,0,100,29.91,29.80,0,0,0,0.00
2014-10-19,-200,0,200,-100,0,200,0,0,100,30.14,29.89,0,0,0,0.00
2014-10-20,-200,0,200,-100,0,200,0,0,100,30.16,30.00,0,0,0,0.00
2014-10-21,-200,0,200,-100,0,200,0,0,100,30.00,29.88,0,0,0,0.00
2014-10-22,-200,0,200,-100,0,200,0,0,100,30.07,29.92,0,0,0,0.00
2014-10-23,-200,0,200,-100,0,200,0,0,100,30.11,29.99,0,0,0,0.00
2014-10-24,-200,0,200,-100,0,200,0,0,100,30.09,29.98,0,0,0,0.00
2014-10-25,-200,0,200,-100,0,200,0,0,100,30.04,29.95,0,0,0,0.00
2014-10-26,-200,0,200,-100,0,200,0,0,100,29.98,29.91,0,0,0,0.00
2014-10-27,-200,0,200,-100,0,200,0,0,100,30.13,29.98,0,0,0,0.00
2014-10-28,-200,0,200,-100,0,200,0,0,100,30.20,30.12,0,0,0,0.00
2014-10-29,-200,0,200,-100,0,200,0,0,100,30.13,29.97,0,0,0,0.00
2014-10-30,-200,0,200,-100,0,200,0,0,100,30.00,29.93,0,0,0,0.00
2014-10-31,-200,0,200,-100,0,200,0,0,100,29.92,29.79,0,0,0,0.00
2014-11-1,-200,0,200,-100,0,200,0,0,100,30.07,29.72,0,0,0,0.00
2014-11-2,-200,0,200,-100,0,200,0,0,100,30.35,30.07,0,0,0,0.00
2014-11-3,-200,0,200,-100,0,200,0,0,100,30.49,30.35,0,0,0,0.00
2014-11-4,-200,0,200,-100,0,200,0,0,100,30.44,30.30,0,0,0,0.00
2014-11-5,-200,0,200,-100,0,200,0,0,100,30.33,30.21,0,0,0,0.00
2014-11-6,-200,0,200,-100,0,200,0,0,100,30.20,29.86,0,0,0,0.00
2014-11-7,-200,0,200,-100,0,200,0,0,100,30.07,29.87,0,0,0,0.00
2014-11-8,-200,0,200,-100,0,200,0,0,100,30.08,29.95,0,0,0,0.00
2014-11-9,-200,0,200,-100,0,200,0,0,100,30.03,29.89,0,0,0,0.00
2014-11-10,-200,0,200,-100,0,200,0,0,100,30.10,29.93,0,0,0,0.00
2014-11-11,-200,0,200,-100,0,200,0,0,100,29.94,29.86,0,0,0,0.00
2014-11-12,-200,0,200,-100,0,200,0,0,100,30.03,29.94,0,0,0,0.00
2014-11-13,-200,0,200,-100,0,200,0,0,100,30.06,29.95,0,0,0,0.00
2014-11-14,-200,0,200,-100,0,200,0,0,100,30.30,30.00,0,0,0,0.00
2014-11-15,-200,0,200,-100,0,200,0,0,100,30.43,30.28,0,0,0,0.00
2014-11-16,-200,0,200,-100,0,200,0,0,100,30.32,30.08,0,0,0,0.00
2014-11-17,-200,0,200,-100,0,200,0,0,100,30.08,29.76,0,0,0,0.00
2014-11-18,-200,0,200,-100,0,200,0,0,100,30.37,29.95,0,0,0,0.00
2014-11-19,-200,0,200,-100,0,200,0,0,100,30.47,30.33,0,0,0,0.00
2014-11-20,-200,0,200,-100,0,200,0,0,100,30.33,30.18,0,0,0,0.00
2014-11-21,-200,0,200,-100,0,200,0,0,100,30.48,30.26,0,0,0,0.00
2014-11-22,-200,0,200,-100,0,200,0,0,100,30.53,30.28,0,0,0,0.00
2014-11-23,-200,0,200,-100,0,200,0,0,100,30.28,29.82,0,0,0,0.00
2014-11-24,-200,0,200,-100,0,200,0,0,100,30.02,29.84,0,0,0,0.00
2014-11-25,-200,0,200,-100,0,200,0,0,100,30.11,29.87,0,0,0,0.00
2014-11-26,-200,0,200,-100,0,200,0,0,100,30.15,29.78,0,0,0,0.00
2014-11-27,-200,0,200,-100,0,200,0,0,100,30.31,30.11,0,0,0,0.00
2014-11-28,-200,0,200,-100,0,200,0,0,100,30.42,30.30,0,0,0,0.00
2014-11-29,-200,0,200,-100,0,200,0,0,100,30.41,30.32,0,0,0,0.00
2014-11-30,-200,0,200,-100,0,200,0,0,100,30.42,30.32,0,0,0,0.00
2014-12-1,-200,0,200,-100,0,200,0,0,100,30.45,30.35,0,0,0,0.00
2014-12-2,-200,0,200,-100,0,200,0,0,100,30.36,30.29,0,0,0,0.00
2014-12-3,-200,0,200,-100,0,200,0,0,100,30.32,30.23,0,0,0,0.00
2014-12-4,-200,0,200,-100,0,200,0,0,100,30.36,30.26,0,0,0,0.00
2014-12-5,-200,0,200,-100,0,200,0,0,100,30.45,30.31,0,0,0,0.00
2014-12-6,-200,0,200,-100,0,200,0,0,100,30.30,30.07,0,0,0,0.00
2014-12-7,-200,0,200,-100,0,200,0,0,100,30.33,30.06,0,0,0,0.00
2014-12-8,-200,0,200,-100,0,200,0,0,100,30.32,30.12,0,0,0,0.00
2014-12-9,-200,0,200,-100,0,200,0,0,100,30.11,29.95,0,0,0,0.00
2014-12-10,-200,0,200,-100,0,200,0,0,100,30.11,30.01,0,0,0,0.00
2014-12-11,-200,0,200,-100,0,200,0,0,100,30.19,30.05,0,0,0,0.00
2014-12-12,-200,0,200,-100,0,200,0,0,100,30.31,30.18,0,0,0,0.00
2014-12-13,-200,0,200,-100,0,200,0,0,100,30.21,30.08,0,0,0,0.00
2014-12-14,-200,0,200,-100,0,200,0,0,100,30.10,30.02,0,0,0,0.00
2014-12-15,-200,0,200,-100,0,200,0,0,100,30.14,30.05,0,0,0,0.00
2014-12-16,-200,0,200,-100,0,200,0,0,100,30.13,29.98,0,0,0,0.00
2014-12-17,-200,0,200,-100,0,200,0,0,100,30.18,30.07,0,0,0,0.00
2014-12-18,-200,0,200,-100,0,200,0,0,100,30.19,30.09,0,0,0,0.00
2014-12-19,-200,0,200,-100,0,200,0,0,100,30.17,30.09,0,0,0,0.00
2014-12-20,-200,0,200,-100,0,200,0,0,100,30.23,30.14,0,0,0,0.00
2014-12-21,-200,0,200,-100,0,200,0,0,100,30.25,30.10,0,0,0,0.00
2014-12-22,-200,0,200,-100,0,200,0,0,100,30.11,29.97,0,0,0,0.00
2014-12-23,-200,0,200,-100,0,200,0,0,100,30.04,29.92,0,0,0,0.00
2014-12-24,-200,0,200,-100,0,200,0,0,100,29.92,29.79,0,0,0,0.00
2014-12-25,-200,0,200,-100,0,200,0,0,100,30.29,29.82,0,0,0,0.00
2014-12-26,-200,0,200,-100,0,200,0,0,100,30.36,30.26,0,0,0,0.00
2014-12-27,-200,0,200,-100,0,200,0,0,100,30.37,30.21,0,0,0,0.00